sensor_id;sensor_type;location;lat;lon;timestamp;temperature;humidity
24103;DHT22;12278;53.058;9.028;2024-02-23T00:00:48;9.70;99.90
24103;DHT22;12278;53.058;9.028;2024-02-23T00:04:48;9.70;99.90
24103;DHT22;12278;53.058;9.028;2024-02-23T00:08:49;9.50;99.90
24103;DHT22;12278;53.058;9.028;2024-02-23T00:12:49;9.50;99.90
24103;DHT22;12278;53.058;9.028;2024-02-23T00:16:50;9.50;99.90
24103;DHT22;12278;53.058;9.028;2024-02-23T00:20:50;9.30;99.90
24103;DHT22;12278;53.058;9.028;2024-02-23T00:24:51;9.00;99.90
24103;DHT22;12278;53.058;9.028;2024-02-23T00:29:02;8.50;99.90
24103;DHT22;12278;53.058;9.028;2024-02-23T00:33:02;7.10;99.90
24103;DHT22;12278;53.058;9.028;2024-02-23T00:37:03;6.80;99.90
24103;DHT22;12278;53.058;9.028;2024-02-23T00:41:04;6.70;99.90
24103;DHT22;12278;53.058;9.028;2024-02-23T00:45:05;6.60;99.90
24103;DHT22;12278;53.058;9.028;2024-02-23T00:49:06;6.70;99.90
24103;DHT22;12278;53.058;9.028;2024-02-23T00:53:06;6.80;99.90
24103;DHT22;12278;53.058;9.028;2024-02-23T00:57:06;6.80;99.90
24103;DHT22;12278;53.058;9.028;2024-02-23T01:01:07;6.80;99.90
24103;DHT22;12278;53.058;9.028;2024-02-23T01:05:08;6.90;99.90
24103;DHT22;12278;53.058;9.028;2024-02-23T01:09:10;6.80;99.90
24103;DHT22;12278;53.058;9.028;2024-02-23T01:13:11;6.80;99.90
24103;DHT22;12278;53.058;9.028;2024-02-23T01:17:11;6.80;99.90
24103;DHT22;12278;53.058;9.028;2024-02-23T01:21:12;6.80;99.90
24103;DHT22;12278;53.058;9.028;2024-02-23T01:25:14;6.70;99.90
24103;DHT22;12278;53.058;9.028;2024-02-23T01:29:25;6.70;99.90
24103;DHT22;12278;53.058;9.028;2024-02-23T01:33:26;6.70;99.90
24103;DHT22;12278;53.058;9.028;2024-02-23T01:37:27;6.50;99.90
24103;DHT22;12278;53.058;9.028;2024-02-23T01:41:27;6.30;99.90
24103;DHT22;12278;53.058;9.028;2024-02-23T01:45:29;6.00;99.90
24103;DHT22;12278;53.058;9.028;2024-02-23T01:49:30;5.90;99.90
24103;DHT22;12278;53.058;9.028;2024-02-23T01:53:32;5.90;99.90
24103;DHT22;12278;53.058;9.028;2024-02-23T01:57:36;5.90;99.90
24103;DHT22;12278;53.058;9.028;2024-02-23T02:01:37;5.90;99.90
24103;DHT22;12278;53.058;9.028;2024-02-23T02:05:38;5.90;99.90
24103;DHT22;12278;53.058;9.028;2024-02-23T02:09:39;5.90;99.90
24103;DHT22;12278;53.058;9.028;2024-02-23T02:13:39;5.90;99.90
24103;DHT22;12278;53.058;9.028;2024-02-23T02:17:40;5.90;99.90
24103;DHT22;12278;53.058;9.028;2024-02-23T02:21:45;5.90;99.90
24103;DHT22;12278;53.058;9.028;2024-02-23T02:25:51;5.80;99.90
24103;DHT22;12278;53.058;9.028;2024-02-23T02:29:57;5.80;99.90
24103;DHT22;12278;53.058;9.028;2024-02-23T02:33:58;5.70;99.90
24103;DHT22;12278;53.058;9.028;2024-02-23T02:37:58;5.60;99.90
24103;DHT22;12278;53.058;9.028;2024-02-23T02:41:59;5.50;99.90
24103;DHT22;12278;53.058;9.028;2024-02-23T02:46:02;5.50;99.90
24103;DHT22;12278;53.058;9.028;2024-02-23T02:50:03;5.40;99.90
24103;DHT22;12278;53.058;9.028;2024-02-23T02:54:06;5.40;99.90
24103;DHT22;12278;53.058;9.028;2024-02-23T02:58:07;5.50;99.90
24103;DHT22;12278;53.058;9.028;2024-02-23T03:02:08;5.40;99.90
24103;DHT22;12278;53.058;9.028;2024-02-23T03:06:09;5.40;99.90
24103;DHT22;12278;53.058;9.028;2024-02-23T03:10:09;5.40;99.90
24103;DHT22;12278;53.058;9.028;2024-02-23T03:14:10;5.40;99.90
24103;DHT22;12278;53.058;9.028;2024-02-23T03:18:11;5.40;99.90
24103;DHT22;12278;53.058;9.028;2024-02-23T03:22:11;5.40;99.90
24103;DHT22;12278;53.058;9.028;2024-02-23T03:26:12;5.40;99.90
24103;DHT22;12278;53.058;9.028;2024-02-23T03:30:13;5.40;99.90
24103;DHT22;12278;53.058;9.028;2024-02-23T03:34:14;5.50;99.90
24103;DHT22;12278;53.058;9.028;2024-02-23T03:38:14;5.50;99.90
24103;DHT22;12278;53.058;9.028;2024-02-23T03:42:15;5.50;99.90
24103;DHT22;12278;53.058;9.028;2024-02-23T03:46:16;5.40;99.90
24103;DHT22;12278;53.058;9.028;2024-02-23T03:50:17;5.50;99.90
24103;DHT22;12278;53.058;9.028;2024-02-23T03:54:18;5.60;99.90
24103;DHT22;12278;53.058;9.028;2024-02-23T03:58:18;5.50;99.90
24103;DHT22;12278;53.058;9.028;2024-02-23T04:02:19;5.60;99.90
24103;DHT22;12278;53.058;9.028;2024-02-23T04:06:20;5.60;99.90
24103;DHT22;12278;53.058;9.028;2024-02-23T04:10:22;5.60;99.90
24103;DHT22;12278;53.058;9.028;2024-02-23T04:14:23;5.60;99.90
24103;DHT22;12278;53.058;9.028;2024-02-23T04:18:23;5.60;99.90
24103;DHT22;12278;53.058;9.028;2024-02-23T04:22:24;5.60;99.90
24103;DHT22;12278;53.058;9.028;2024-02-23T04:26:25;5.60;99.90
24103;DHT22;12278;53.058;9.028;2024-02-23T04:30:28;5.60;99.90
24103;DHT22;12278;53.058;9.028;2024-02-23T04:34:29;5.70;99.90
24103;DHT22;12278;53.058;9.028;2024-02-23T04:38:30;5.70;99.90
24103;DHT22;12278;53.058;9.028;2024-02-23T04:42:30;5.70;99.90
24103;DHT22;12278;53.058;9.028;2024-02-23T04:46:31;5.70;99.90
24103;DHT22;12278;53.058;9.028;2024-02-23T04:50:34;5.60;99.90
24103;DHT22;12278;53.058;9.028;2024-02-23T04:54:35;5.50;99.90
24103;DHT22;12278;53.058;9.028;2024-02-23T04:58:35;5.50;99.90
24103;DHT22;12278;53.058;9.028;2024-02-23T05:02:37;5.40;99.90
24103;DHT22;12278;53.058;9.028;2024-02-23T05:06:38;5.40;99.90
24103;DHT22;12278;53.058;9.028;2024-02-23T05:10:39;5.30;99.90
24103;DHT22;12278;53.058;9.028;2024-02-23T05:14:39;5.30;99.90
24103;DHT22;12278;53.058;9.028;2024-02-23T05:18:40;5.20;99.90
24103;DHT22;12278;53.058;9.028;2024-02-23T05:22:41;5.30;99.90
24103;DHT22;12278;53.058;9.028;2024-02-23T05:26:42;5.30;99.90
24103;DHT22;12278;53.058;9.028;2024-02-23T05:30:44;5.30;99.90
24103;DHT22;12278;53.058;9.028;2024-02-23T05:34:45;5.30;99.90
24103;DHT22;12278;53.058;9.028;2024-02-23T05:38:45;5.20;99.90
24103;DHT22;12278;53.058;9.028;2024-02-23T05:42:46;5.10;99.90
24103;DHT22;12278;53.058;9.028;2024-02-23T05:46:46;5.10;99.90
24103;DHT22;12278;53.058;9.028;2024-02-23T05:50:49;5.10;99.90
24103;DHT22;12278;53.058;9.028;2024-02-23T05:54:50;5.00;99.90
24103;DHT22;12278;53.058;9.028;2024-02-23T05:58:52;5.00;99.90
24103;DHT22;12278;53.058;9.028;2024-02-23T06:02:52;5.10;99.90
24103;DHT22;12278;53.058;9.028;2024-02-23T06:06:55;5.10;99.90
24103;DHT22;12278;53.058;9.028;2024-02-23T06:11:02;5.30;99.90
24103;DHT22;12278;53.058;9.028;2024-02-23T06:15:04;5.40;99.90
24103;DHT22;12278;53.058;9.028;2024-02-23T06:19:07;5.40;99.90
24103;DHT22;12278;53.058;9.028;2024-02-23T06:23:08;5.50;99.90
24103;DHT22;12278;53.058;9.028;2024-02-23T06:27:09;5.60;99.90
24103;DHT22;12278;53.058;9.028;2024-02-23T06:31:09;5.70;99.90
24103;DHT22;12278;53.058;9.028;2024-02-23T06:35:10;5.70;99.90
24103;DHT22;12278;53.058;9.028;2024-02-23T06:39:12;5.70;99.90
24103;DHT22;12278;53.058;9.028;2024-02-23T06:43:13;5.80;99.90
24103;DHT22;12278;53.058;9.028;2024-02-23T06:47:13;5.70;99.90
24103;DHT22;12278;53.058;9.028;2024-02-23T06:51:14;5.70;99.90
24103;DHT22;12278;53.058;9.028;2024-02-23T06:55:16;5.80;99.90
24103;DHT22;12278;53.058;9.028;2024-02-23T06:59:17;5.80;99.90
24103;DHT22;12278;53.058;9.028;2024-02-23T07:03:18;5.80;99.90
24103;DHT22;12278;53.058;9.028;2024-02-23T07:07:19;5.80;99.90
24103;DHT22;12278;53.058;9.028;2024-02-23T07:11:19;6.00;99.90
24103;DHT22;12278;53.058;9.028;2024-02-23T07:15:23;6.00;99.90
24103;DHT22;12278;53.058;9.028;2024-02-23T07:19:24;6.00;99.90
24103;DHT22;12278;53.058;9.028;2024-02-23T07:23:25;6.10;99.90
24103;DHT22;12278;53.058;9.028;2024-02-23T07:27:26;6.20;99.90
24103;DHT22;12278;53.058;9.028;2024-02-23T07:31:26;6.20;99.90
24103;DHT22;12278;53.058;9.028;2024-02-23T07:35:27;6.30;99.90
24103;DHT22;12278;53.058;9.028;2024-02-23T07:39:28;6.30;99.90
24103;DHT22;12278;53.058;9.028;2024-02-23T07:43:28;6.40;99.90
24103;DHT22;12278;53.058;9.028;2024-02-23T07:47:34;6.60;99.90
24103;DHT22;12278;53.058;9.028;2024-02-23T07:51:35;6.50;99.90
24103;DHT22;12278;53.058;9.028;2024-02-23T07:55:35;6.60;99.90
24103;DHT22;12278;53.058;9.028;2024-02-23T07:59:36;6.80;99.90
24103;DHT22;12278;53.058;9.028;2024-02-23T08:03:45;7.00;99.90
24103;DHT22;12278;53.058;9.028;2024-02-23T08:07:49;7.00;99.90
24103;DHT22;12278;53.058;9.028;2024-02-23T08:11:49;7.20;99.90
24103;DHT22;12278;53.058;9.028;2024-02-23T08:15:54;7.70;99.90
24103;DHT22;12278;53.058;9.028;2024-02-23T08:19:54;7.80;99.90
24103;DHT22;12278;53.058;9.028;2024-02-23T08:23:55;7.60;99.90
24103;DHT22;12278;53.058;9.028;2024-02-23T08:27:56;7.70;99.90
24103;DHT22;12278;53.058;9.028;2024-02-23T08:31:59;8.30;99.90
24103;DHT22;12278;53.058;9.028;2024-02-23T08:36:00;8.30;99.90
24103;DHT22;12278;53.058;9.028;2024-02-23T08:40:00;8.90;99.90
24103;DHT22;12278;53.058;9.028;2024-02-23T08:44:04;8.60;99.90
24103;DHT22;12278;53.058;9.028;2024-02-23T08:48:05;8.00;99.90
24103;DHT22;12278;53.058;9.028;2024-02-23T08:52:05;8.20;99.90
24103;DHT22;12278;53.058;9.028;2024-02-23T08:56:06;8.70;99.90
24103;DHT22;12278;53.058;9.028;2024-02-23T09:00:08;8.70;99.90
24103;DHT22;12278;53.058;9.028;2024-02-23T09:04:09;8.60;99.90
24103;DHT22;12278;53.058;9.028;2024-02-23T09:08:15;8.50;99.90
24103;DHT22;12278;53.058;9.028;2024-02-23T09:12:16;8.70;99.90
24103;DHT22;12278;53.058;9.028;2024-02-23T09:16:17;8.40;99.90
24103;DHT22;12278;53.058;9.028;2024-02-23T09:20:19;8.20;99.90
24103;DHT22;12278;53.058;9.028;2024-02-23T09:24:27;8.00;99.90
24103;DHT22;12278;53.058;9.028;2024-02-23T09:28:29;7.90;99.90
24103;DHT22;12278;53.058;9.028;2024-02-23T09:32:30;7.70;99.90
24103;DHT22;12278;53.058;9.028;2024-02-23T09:36:30;7.90;99.90
24103;DHT22;12278;53.058;9.028;2024-02-23T09:40:31;7.70;99.90
24103;DHT22;12278;53.058;9.028;2024-02-23T09:44:32;7.60;99.90
24103;DHT22;12278;53.058;9.028;2024-02-23T09:48:34;7.70;99.90
24103;DHT22;12278;53.058;9.028;2024-02-23T09:52:35;7.60;99.90
24103;DHT22;12278;53.058;9.028;2024-02-23T09:56:35;7.50;99.90
24103;DHT22;12278;53.058;9.028;2024-02-23T10:00:37;7.40;99.90
24103;DHT22;12278;53.058;9.028;2024-02-23T10:04:38;7.40;99.90
24103;DHT22;12278;53.058;9.028;2024-02-23T10:08:39;7.40;99.90
24103;DHT22;12278;53.058;9.028;2024-02-23T10:12:40;7.50;99.90
24103;DHT22;12278;53.058;9.028;2024-02-23T10:16:40;7.50;99.90
24103;DHT22;12278;53.058;9.028;2024-02-23T10:20:41;7.60;99.90
24103;DHT22;12278;53.058;9.028;2024-02-23T10:24:42;7.70;99.90
24103;DHT22;12278;53.058;9.028;2024-02-23T10:28:42;7.70;99.90
24103;DHT22;12278;53.058;9.028;2024-02-23T10:32:43;7.80;99.90
24103;DHT22;12278;53.058;9.028;2024-02-23T10:36:43;7.80;99.90
24103;DHT22;12278;53.058;9.028;2024-02-23T10:40:45;7.90;99.90
24103;DHT22;12278;53.058;9.028;2024-02-23T10:44:47;7.90;99.90
24103;DHT22;12278;53.058;9.028;2024-02-23T10:48:48;7.90;99.90
24103;DHT22;12278;53.058;9.028;2024-02-23T10:52:49;8.00;99.90
24103;DHT22;12278;53.058;9.028;2024-02-23T10:56:50;7.90;99.90
24103;DHT22;12278;53.058;9.028;2024-02-23T11:00:51;8.00;99.90
24103;DHT22;12278;53.058;9.028;2024-02-23T11:04:52;8.10;99.90
24103;DHT22;12278;53.058;9.028;2024-02-23T11:09:04;8.10;99.90
24103;DHT22;12278;53.058;9.028;2024-02-23T11:13:07;8.10;99.90
24103;DHT22;12278;53.058;9.028;2024-02-23T11:17:07;8.00;99.90
24103;DHT22;12278;53.058;9.028;2024-02-23T11:21:17;8.10;99.90
24103;DHT22;12278;53.058;9.028;2024-02-23T11:25:17;8.20;99.90
24103;DHT22;12278;53.058;9.028;2024-02-23T11:29:18;8.30;99.90
24103;DHT22;12278;53.058;9.028;2024-02-23T11:33:25;8.50;99.90
24103;DHT22;12278;53.058;9.028;2024-02-23T11:37:29;8.50;99.90
24103;DHT22;12278;53.058;9.028;2024-02-23T11:41:30;8.40;99.90
24103;DHT22;12278;53.058;9.028;2024-02-23T11:45:30;8.50;99.90
24103;DHT22;12278;53.058;9.028;2024-02-23T11:49:31;8.70;99.90
24103;DHT22;12278;53.058;9.028;2024-02-23T11:53:32;9.00;99.90
24103;DHT22;12278;53.058;9.028;2024-02-23T11:57:32;9.30;99.90
24103;DHT22;12278;53.058;9.028;2024-02-23T12:01:33;9.90;99.90
24103;DHT22;12278;53.058;9.028;2024-02-23T12:05:34;10.30;99.90
24103;DHT22;12278;53.058;9.028;2024-02-23T12:09:34;10.50;99.90
24103;DHT22;12278;53.058;9.028;2024-02-23T12:13:35;10.50;99.90
24103;DHT22;12278;53.058;9.028;2024-02-23T12:17:36;10.30;99.90
24103;DHT22;12278;53.058;9.028;2024-02-23T12:21:37;9.40;99.90
24103;DHT22;12278;53.058;9.028;2024-02-23T12:25:38;9.40;99.90
24103;DHT22;12278;53.058;9.028;2024-02-23T12:29:38;9.30;99.90
24103;DHT22;12278;53.058;9.028;2024-02-23T12:33:39;8.90;99.90
24103;DHT22;12278;53.058;9.028;2024-02-23T12:37:40;8.80;99.90
24103;DHT22;12278;53.058;9.028;2024-02-23T12:41:41;8.80;99.90
24103;DHT22;12278;53.058;9.028;2024-02-23T12:45:42;8.80;99.90
24103;DHT22;12278;53.058;9.028;2024-02-23T12:49:45;8.70;99.90
24103;DHT22;12278;53.058;9.028;2024-02-23T12:53:45;8.70;99.90
24103;DHT22;12278;53.058;9.028;2024-02-23T12:57:46;8.70;99.90
24103;DHT22;12278;53.058;9.028;2024-02-23T13:01:46;8.70;99.90
24103;DHT22;12278;53.058;9.028;2024-02-23T13:05:47;8.70;99.90
24103;DHT22;12278;53.058;9.028;2024-02-23T13:09:47;8.60;99.90
24103;DHT22;12278;53.058;9.028;2024-02-23T13:13:47;8.60;99.90
24103;DHT22;12278;53.058;9.028;2024-02-23T13:17:48;8.70;99.90
24103;DHT22;12278;53.058;9.028;2024-02-23T13:21:48;9.00;99.90
24103;DHT22;12278;53.058;9.028;2024-02-23T13:25:49;9.30;99.90
24103;DHT22;12278;53.058;9.028;2024-02-23T13:29:49;9.90;99.90
24103;DHT22;12278;53.058;9.028;2024-02-23T13:33:50;10.10;99.90
24103;DHT22;12278;53.058;9.028;2024-02-23T13:37:50;9.90;99.90
24103;DHT22;12278;53.058;9.028;2024-02-23T13:41:51;9.90;99.90
24103;DHT22;12278;53.058;9.028;2024-02-23T13:45:52;9.90;99.90
24103;DHT22;12278;53.058;9.028;2024-02-23T13:49:52;11.00;99.90
24103;DHT22;12278;53.058;9.028;2024-02-23T13:53:53;10.70;99.90
24103;DHT22;12278;53.058;9.028;2024-02-23T13:57:59;10.20;99.90
24103;DHT22;12278;53.058;9.028;2024-02-23T14:02:03;10.40;99.90
24103;DHT22;12278;53.058;9.028;2024-02-23T14:06:04;10.40;99.90
24103;DHT22;12278;53.058;9.028;2024-02-23T14:10:04;9.80;99.90
24103;DHT22;12278;53.058;9.028;2024-02-23T14:14:05;9.70;99.90
24103;DHT22;12278;53.058;9.028;2024-02-23T14:18:06;9.40;99.90
24103;DHT22;12278;53.058;9.028;2024-02-23T14:22:12;9.40;99.90
24103;DHT22;12278;53.058;9.028;2024-02-23T14:26:12;9.30;99.90
24103;DHT22;12278;53.058;9.028;2024-02-23T14:30:16;9.30;99.90
24103;DHT22;12278;53.058;9.028;2024-02-23T14:34:17;9.20;99.90
24103;DHT22;12278;53.058;9.028;2024-02-23T14:38:17;9.10;99.90
24103;DHT22;12278;53.058;9.028;2024-02-23T14:42:18;9.10;99.90
24103;DHT22;12278;53.058;9.028;2024-02-23T14:46:19;9.00;99.90
24103;DHT22;12278;53.058;9.028;2024-02-23T14:50:22;9.00;99.90
24103;DHT22;12278;53.058;9.028;2024-02-23T14:54:23;9.00;99.90
24103;DHT22;12278;53.058;9.028;2024-02-23T14:58:23;9.00;99.90
24103;DHT22;12278;53.058;9.028;2024-02-23T15:02:24;9.10;99.90
24103;DHT22;12278;53.058;9.028;2024-02-23T15:06:24;9.20;99.90
24103;DHT22;12278;53.058;9.028;2024-02-23T15:10:25;9.40;99.90
24103;DHT22;12278;53.058;9.028;2024-02-23T15:14:26;9.30;99.90
24103;DHT22;12278;53.058;9.028;2024-02-23T15:18:26;9.20;99.90
24103;DHT22;12278;53.058;9.028;2024-02-23T15:22:27;9.10;99.90
24103;DHT22;12278;53.058;9.028;2024-02-23T15:26:29;9.10;99.90
24103;DHT22;12278;53.058;9.028;2024-02-23T15:30:32;9.30;99.90
24103;DHT22;12278;53.058;9.028;2024-02-23T15:34:33;9.70;99.90
24103;DHT22;12278;53.058;9.028;2024-02-23T15:38:34;9.20;99.90
24103;DHT22;12278;53.058;9.028;2024-02-23T15:42:35;8.60;99.90
24103;DHT22;12278;53.058;9.028;2024-02-23T15:46:36;8.10;99.90
24103;DHT22;12278;53.058;9.028;2024-02-23T15:50:36;7.90;99.90
24103;DHT22;12278;53.058;9.028;2024-02-23T15:54:40;7.90;99.90
24103;DHT22;12278;53.058;9.028;2024-02-23T15:58:40;7.80;99.90
24103;DHT22;12278;53.058;9.028;2024-02-23T16:02:43;7.90;99.90
24103;DHT22;12278;53.058;9.028;2024-02-23T16:06:44;8.00;99.90
24103;DHT22;12278;53.058;9.028;2024-02-23T16:10:47;8.00;99.90
24103;DHT22;12278;53.058;9.028;2024-02-23T16:14:51;8.00;99.90
24103;DHT22;12278;53.058;9.028;2024-02-23T16:18:52;8.00;99.90
24103;DHT22;12278;53.058;9.028;2024-02-23T16:22:52;8.00;99.90
24103;DHT22;12278;53.058;9.028;2024-02-23T16:26:53;8.10;99.90
24103;DHT22;12278;53.058;9.028;2024-02-23T16:30:53;8.10;99.90
24103;DHT22;12278;53.058;9.028;2024-02-23T16:34:54;8.00;99.90
24103;DHT22;12278;53.058;9.028;2024-02-23T16:38:55;8.10;99.90
24103;DHT22;12278;53.058;9.028;2024-02-23T16:42:55;8.10;99.90
24103;DHT22;12278;53.058;9.028;2024-02-23T16:46:56;8.10;99.90
24103;DHT22;12278;53.058;9.028;2024-02-23T16:50:57;8.10;99.90
24103;DHT22;12278;53.058;9.028;2024-02-23T16:54:58;8.00;99.90
24103;DHT22;12278;53.058;9.028;2024-02-23T16:58:59;8.00;99.90
24103;DHT22;12278;53.058;9.028;2024-02-23T17:03:00;7.90;99.90
24103;DHT22;12278;53.058;9.028;2024-02-23T17:07:01;7.90;99.90
24103;DHT22;12278;53.058;9.028;2024-02-23T17:11:01;7.90;99.90
24103;DHT22;12278;53.058;9.028;2024-02-23T17:15:02;7.90;99.90
24103;DHT22;12278;53.058;9.028;2024-02-23T17:19:03;8.00;99.90
24103;DHT22;12278;53.058;9.028;2024-02-23T17:23:03;8.00;99.90
24103;DHT22;12278;53.058;9.028;2024-02-23T17:27:04;8.00;99.90
24103;DHT22;12278;53.058;9.028;2024-02-23T17:31:04;8.10;99.90
24103;DHT22;12278;53.058;9.028;2024-02-23T17:35:06;8.10;99.90
24103;DHT22;12278;53.058;9.028;2024-02-23T17:39:06;8.10;99.90
24103;DHT22;12278;53.058;9.028;2024-02-23T17:43:07;8.00;99.90
24103;DHT22;12278;53.058;9.028;2024-02-23T17:47:07;8.00;99.90
24103;DHT22;12278;53.058;9.028;2024-02-23T17:51:08;7.90;99.90
24103;DHT22;12278;53.058;9.028;2024-02-23T17:55:08;7.90;99.90
24103;DHT22;12278;53.058;9.028;2024-02-23T17:59:11;7.80;99.90
24103;DHT22;12278;53.058;9.028;2024-02-23T18:03:12;7.80;99.90
24103;DHT22;12278;53.058;9.028;2024-02-23T18:07:13;7.80;99.90
24103;DHT22;12278;53.058;9.028;2024-02-23T18:11:13;7.90;99.90
24103;DHT22;12278;53.058;9.028;2024-02-23T18:15:14;7.90;99.90
24103;DHT22;12278;53.058;9.028;2024-02-23T18:19:14;7.80;99.90
24103;DHT22;12278;53.058;9.028;2024-02-23T18:23:15;7.90;99.90
24103;DHT22;12278;53.058;9.028;2024-02-23T18:27:16;7.90;99.90
24103;DHT22;12278;53.058;9.028;2024-02-23T18:31:20;7.80;99.90
24103;DHT22;12278;53.058;9.028;2024-02-23T18:35:20;7.80;99.90
24103;DHT22;12278;53.058;9.028;2024-02-23T18:39:21;7.80;99.90
24103;DHT22;12278;53.058;9.028;2024-02-23T18:43:21;7.70;99.90
24103;DHT22;12278;53.058;9.028;2024-02-23T18:47:22;7.70;99.90
24103;DHT22;12278;53.058;9.028;2024-02-23T18:51:23;7.60;99.90
24103;DHT22;12278;53.058;9.028;2024-02-23T18:55:24;7.50;99.90
24103;DHT22;12278;53.058;9.028;2024-02-23T18:59:25;7.50;99.90
24103;DHT22;12278;53.058;9.028;2024-02-23T19:03:27;7.40;99.90
24103;DHT22;12278;53.058;9.028;2024-02-23T19:07:27;7.40;99.90
24103;DHT22;12278;53.058;9.028;2024-02-23T19:11:28;7.40;99.90
24103;DHT22;12278;53.058;9.028;2024-02-23T19:15:28;7.30;99.90
24103;DHT22;12278;53.058;9.028;2024-02-23T19:19:30;7.30;99.90
24103;DHT22;12278;53.058;9.028;2024-02-23T19:23:30;7.30;99.90
24103;DHT22;12278;53.058;9.028;2024-02-23T19:27:31;7.20;99.90
24103;DHT22;12278;53.058;9.028;2024-02-23T19:31:32;7.20;99.90
24103;DHT22;12278;53.058;9.028;2024-02-23T19:35:32;7.20;99.90
24103;DHT22;12278;53.058;9.028;2024-02-23T19:39:33;7.30;99.90
24103;DHT22;12278;53.058;9.028;2024-02-23T19:43:33;7.30;99.90
24103;DHT22;12278;53.058;9.028;2024-02-23T19:47:34;7.40;99.90
24103;DHT22;12278;53.058;9.028;2024-02-23T19:51:35;7.40;99.90
24103;DHT22;12278;53.058;9.028;2024-02-23T19:55:37;7.40;99.90
24103;DHT22;12278;53.058;9.028;2024-02-23T19:59:38;7.50;99.90
24103;DHT22;12278;53.058;9.028;2024-02-23T20:03:40;7.50;99.90
24103;DHT22;12278;53.058;9.028;2024-02-23T20:07:40;7.50;99.90
24103;DHT22;12278;53.058;9.028;2024-02-23T20:11:41;7.60;99.90
24103;DHT22;12278;53.058;9.028;2024-02-23T20:15:42;7.70;99.90
24103;DHT22;12278;53.058;9.028;2024-02-23T20:19:42;7.70;99.90
24103;DHT22;12278;53.058;9.028;2024-02-23T20:23:43;7.70;99.90
24103;DHT22;12278;53.058;9.028;2024-02-23T20:27:43;7.70;99.90
24103;DHT22;12278;53.058;9.028;2024-02-23T20:31:44;7.70;99.90
24103;DHT22;12278;53.058;9.028;2024-02-23T20:35:44;7.70;99.90
24103;DHT22;12278;53.058;9.028;2024-02-23T20:39:45;7.70;99.90
24103;DHT22;12278;53.058;9.028;2024-02-23T20:43:45;7.70;99.90
24103;DHT22;12278;53.058;9.028;2024-02-23T20:47:46;7.70;99.90
24103;DHT22;12278;53.058;9.028;2024-02-23T20:51:46;7.60;99.90
24103;DHT22;12278;53.058;9.028;2024-02-23T20:55:48;7.60;99.90
24103;DHT22;12278;53.058;9.028;2024-02-23T20:59:49;7.50;99.90
24103;DHT22;12278;53.058;9.028;2024-02-23T21:03:50;7.40;99.90
24103;DHT22;12278;53.058;9.028;2024-02-23T21:07:50;7.20;99.90
24103;DHT22;12278;53.058;9.028;2024-02-23T21:11:52;7.10;99.90
24103;DHT22;12278;53.058;9.028;2024-02-23T21:15:54;7.00;99.90
24103;DHT22;12278;53.058;9.028;2024-02-23T21:19:54;6.90;99.90
24103;DHT22;12278;53.058;9.028;2024-02-23T21:23:55;6.80;99.90
24103;DHT22;12278;53.058;9.028;2024-02-23T21:27:55;6.80;99.90
24103;DHT22;12278;53.058;9.028;2024-02-23T21:31:56;6.70;99.90
24103;DHT22;12278;53.058;9.028;2024-02-23T21:35:57;6.80;99.90
24103;DHT22;12278;53.058;9.028;2024-02-23T21:39:57;6.80;99.90
24103;DHT22;12278;53.058;9.028;2024-02-23T21:43:58;6.90;99.90
24103;DHT22;12278;53.058;9.028;2024-02-23T21:47:59;6.90;99.90
24103;DHT22;12278;53.058;9.028;2024-02-23T21:51:59;7.00;99.90
24103;DHT22;12278;53.058;9.028;2024-02-23T21:56:03;7.10;99.90
24103;DHT22;12278;53.058;9.028;2024-02-23T22:00:04;7.10;99.90
24103;DHT22;12278;53.058;9.028;2024-02-23T22:04:05;7.00;99.90
24103;DHT22;12278;53.058;9.028;2024-02-23T22:08:06;7.10;99.90
24103;DHT22;12278;53.058;9.028;2024-02-23T22:12:07;7.20;99.90
24103;DHT22;12278;53.058;9.028;2024-02-23T22:16:07;7.10;99.90
24103;DHT22;12278;53.058;9.028;2024-02-23T22:20:08;7.10;99.90
24103;DHT22;12278;53.058;9.028;2024-02-23T22:24:09;7.00;99.90
24103;DHT22;12278;53.058;9.028;2024-02-23T22:28:10;7.00;99.90
24103;DHT22;12278;53.058;9.028;2024-02-23T22:32:10;6.90;99.90
24103;DHT22;12278;53.058;9.028;2024-02-23T22:36:11;6.80;99.90
24103;DHT22;12278;53.058;9.028;2024-02-23T22:40:12;6.90;99.90
24103;DHT22;12278;53.058;9.028;2024-02-23T22:44:13;6.80;99.90
24103;DHT22;12278;53.058;9.028;2024-02-23T22:48:14;6.80;99.90
24103;DHT22;12278;53.058;9.028;2024-02-23T22:52:14;6.80;99.90
24103;DHT22;12278;53.058;9.028;2024-02-23T22:56:15;6.80;99.90
24103;DHT22;12278;53.058;9.028;2024-02-23T23:00:16;6.70;99.90
24103;DHT22;12278;53.058;9.028;2024-02-23T23:04:17;6.60;99.90
24103;DHT22;12278;53.058;9.028;2024-02-23T23:08:17;6.50;99.90
24103;DHT22;12278;53.058;9.028;2024-02-23T23:12:18;6.30;99.90
24103;DHT22;12278;53.058;9.028;2024-02-23T23:16:19;6.30;99.90
24103;DHT22;12278;53.058;9.028;2024-02-23T23:20:19;6.20;99.90
24103;DHT22;12278;53.058;9.028;2024-02-23T23:24:20;6.20;99.90
24103;DHT22;12278;53.058;9.028;2024-02-23T23:28:20;6.10;99.90
24103;DHT22;12278;53.058;9.028;2024-02-23T23:32:21;6.10;99.90
24103;DHT22;12278;53.058;9.028;2024-02-23T23:36:21;6.00;99.90
24103;DHT22;12278;53.058;9.028;2024-02-23T23:40:22;6.00;99.90
24103;DHT22;12278;53.058;9.028;2024-02-23T23:44:23;6.00;99.90
24103;DHT22;12278;53.058;9.028;2024-02-23T23:48:23;6.00;99.90
24103;DHT22;12278;53.058;9.028;2024-02-23T23:52:24;6.00;99.90
24103;DHT22;12278;53.058;9.028;2024-02-23T23:56:24;5.90;99.90
